Hartington, NE (68739)

5:54 PM CST on February 14, 2016 (GMT -0600)
Kneifl Shed | | Change Station
CLOSE
Current Station
Personal Weather Station
Location: Newcastle, NE
Elevation: 1483 ft
Nearby Weather Stations

Elev 1483 ft 42.57 °N, 96.94 °W | Updated 4 minutes ago

Overcast
Overcast
28.2 °F
Feels Like 28 °F
N
0.0
Wind Variable Wind from NW
Gusts 9.0 mph

Today
High -- | Low -- °F
--% Chance of Precip.
Yesterday
High -- | Low -- °F
Precip. -- in
Pressure 29.84 in
Visibility 10.0 miles
Clouds Overcast 2900 ft
Windchill 28 °F
Dew Point 25 °F
Humidity 87%
Rainfall 0.00 in
Snow Depth Not available.
7:27 AM 5:59 PM
Waxing Crescent, 46% visible
METAR KYKN 142335Z AUTO 12004KT 10SM OVC029 M02/M05 A2984 RMK AO1
Pressure 29.84 in
Visibility 10.0 miles
Clouds Overcast 2900 ft
Windchill 28 °F
Dew Point 25 °F
Humidity 87%
Rainfall 0.00 in
Snow Depth Not available.
7:27 AM 5:59 PM
Waxing Crescent, 46% visible
METAR KYKN 142335Z AUTO 12004KT 10SM OVC029 M02/M05 A2984 RMK AO1

10-Day Weather Forecast

Almanac

Astronomy

Feb. 14, 2016 Rise Set
Actual Time
Civil Twilight
Nautical Twilight
Astronomical Twilight
Moon
Length of Visible Light
Length of Day
Tomorrow will be .
, % of the Moon is Illuminated

Today's Extremes

State Highs State Lows

Community

WunderPhotos

Upload Photos

1,892,929 photos uploaded!

WunderBlog® & News

Nearby

Air Quality

  Air Quality AQ Index Pollutant
Not available.

Snow Depth

Station Depth Elevation

Earthquake Activity

City Distance Mag. Time & Date
Minimum magnitude displayed is 2.5.

Coastal Water Temperatures

Place Temperature

Stations

Nearby Weather Stations

Station Location Temp. Windchill Dew Point Humidity Wind Precip. Elev Updated Type
                   

Watches & Warnings

There are currently no watches in effect.